Time;durP1;ratioP1;P1;durP2;ratioP2;P2;SDS_P1;SDS_P2;PMS_P1;PMS_P2;Temp;Humidity;BMP_temperature;BMP_pressure;BME280_temperature;BME280_humidity;BME280_pressure;Samples;Min_cycle;Max_cycle;Signal;HPM_P1;HPM_P2
2021/10/09 07:09:40;;;;;;;19.58;12.85;;;;;;;12.45;45.99;102017.88;5547566;22;98792;-84
2021/10/09 07:15:27;;;;;;;16.08;12.38;;;;;;;13.45;43.01;102024.13;4969370;28;98549;-86
2021/10/09 07:18:18;;;;;;;22.67;13.60;;;;;;;13.87;42.86;102022.38;4954300;28;97266;-82
2021/10/09 07:20:43;;;;;;;20.63;12.85;;;;;;;14.01;42.60;102028.25;4927703;28;97334;-86
2021/10/09 07:23:11;;;;;;;22.77;12.57;;;;;;;14.57;41.25;102017.34;4932751;28;100949;-86
2021/10/09 07:25:38;;;;;;;18.52;11.98;;;;;;;15.27;40.12;102020.00;4916846;28;101206;-85
2021/10/09 07:28:04;;;;;;;17.48;11.63;;;;;;;16.06;38.37;102014.25;4947885;28;96796;-85
2021/10/09 07:30:30;;;;;;;21.30;13.05;;;;;;;16.60;37.74;102024.94;4928275;28;96905;-85
2021/10/09 07:32:55;;;;;;;18.27;12.55;;;;;;;17.50;35.96;102010.41;4933460;28;101464;-84
2021/10/09 07:35:22;;;;;;;18.23;12.70;;;;;;;17.95;35.19;102014.94;4917336;28;100983;-84
2021/10/09 07:37:48;;;;;;;18.38;12.55;;;;;;;17.97;34.66;102016.63;4931414;28;98772;-85
2021/10/09 07:40:14;;;;;;;19.17;12.30;;;;;;;18.04;35.20;102011.97;4933485;28;97506;-90
2021/10/09 07:42:39;;;;;;;16.35;12.77;;;;;;;19.38;33.63;102008.19;4933214;28;100477;-79
2021/10/09 07:45:05;;;;;;;18.25;13.15;;;;;;;20.15;31.92;102012.69;4914432;28;100277;-78
2021/10/09 07:47:31;;;;;;;18.63;13.13;;;;;;;20.68;30.91;102009.28;4949027;28;97582;-80
2021/10/09 07:49:57;;;;;;;19.90;13.02;;;;;;;21.37;30.40;102015.56;4914335;28;97977;-80
2021/10/09 07:52:22;;;;;;;13.82;12.32;;;;;;;21.76;29.47;102015.25;4932892;28;98082;-80
2021/10/09 07:54:48;;;;;;;16.42;12.38;;;;;;;22.52;28.92;102014.63;4940135;28;98913;-81
2021/10/09 07:57:13;;;;;;;16.13;12.35;;;;;;;23.09;27.56;102001.44;4935264;28;96846;-80
2021/10/09 07:59:39;;;;;;;17.23;12.38;;;;;;;23.79;27.06;101996.25;4934148;28;97449;-80
2021/10/09 08:02:05;;;;;;;14.45;12.82;;;;;;;24.53;26.05;102002.25;4949243;28;101653;-79
2021/10/09 08:04:31;;;;;;;20.17;12.15;;;;;;;24.77;25.83;101997.91;4935732;28;97939;-80
2021/10/09 08:06:57;;;;;;;17.40;11.45;;;;;;;25.51;25.08;101999.09;4919775;28;97489;-81
2021/10/09 08:09:25;;;;;;;16.90;12.48;;;;;;;25.16;24.82;102004.25;4934957;28;97302;-81
2021/10/09 08:11:52;;;;;;;13.63;11.50;;;;;;;24.61;25.55;102002.59;4916706;28;101553;-81
2021/10/09 08:14:17;;;;;;;13.25;11.43;;;;;;;25.58;24.47;102002.19;4944180;28;98185;-80
2021/10/09 08:16:43;;;;;;;14.02;11.88;;;;;;;25.52;24.35;102006.19;4934295;28;98349;-80
2021/10/09 08:19:09;;;;;;;15.05;11.60;;;;;;;25.51;24.43;102009.84;4923736;28;98189;-81
2021/10/09 08:21:40;;;;;;;21.15;12.80;;;;;;;26.45;23.90;102007.59;4920101;28;101547;-81
2021/10/09 08:24:19;;;;;;;15.13;12.45;;;;;;;26.58;23.36;101995.78;4927208;28;101175;-81
2021/10/09 08:26:54;;;;;;;16.05;10.45;;;;;;;27.03;22.68;101993.28;4922694;28;97044;-82
2021/10/09 08:40:17;;;;;;;14.85;11.60;;;;;;;28.28;21.88;102003.13;4935423;28;97610;-79
2021/10/09 08:42:43;;;;;;;15.80;11.05;;;;;;;28.07;21.64;102000.34;4930486;28;97941;-80
2021/10/09 08:45:10;;;;;;;14.93;10.63;;;;;;;28.79;20.20;101998.88;4920832;28;101598;-79
2021/10/09 08:47:37;;;;;;;12.88;11.38;;;;;;;27.93;21.35;102003.31;4922128;28;96870;-81
2021/10/09 08:50:08;;;;;;;11.65;10.27;;;;;;;28.04;21.23;102003.28;4934271;28;97255;-82
2021/10/09 08:52:35;;;;;;;21.48;10.48;;;;;;;28.89;20.62;101997.13;4920249;28;102079;-81
2021/10/09 08:55:21;;;;;;;14.15;10.07;;;;;;;28.43;20.31;102004.56;4937975;28;97930;-81
2021/10/09 08:57:47;;;;;;;13.63;10.45;;;;;;;27.65;20.86;101999.25;4950941;28;97269;-82
2021/10/09 09:00:16;;;;;;;16.73;10.30;;;;;;;27.36;21.27;101990.78;4935413;28;97219;-81
2021/10/09 09:03:15;;;;;;;10.98;9.88;;;;;;;27.51;21.15;101989.56;4914238;28;101769;-82
2021/10/09 09:05:58;;;;;;;14.83;10.80;;;;;;;27.81;21.01;101988.97;4907790;28;101605;-83
2021/10/09 09:30:26;;;;;;;14.95;9.82;;;;;;;27.75;20.31;101982.22;4931802;28;102033;-81
2021/10/09 09:40:58;;;;;;;10.13;8.93;;;;;;;26.41;22.31;101983.59;4930285;28;97954;-80
2021/10/09 09:43:37;;;;;;;10.65;9.52;;;;;;;26.64;21.12;101989.09;4918406;28;97200;-82
2021/10/09 09:46:14;;;;;;;9.95;9.05;;;;;;;26.14;21.34;101988.31;4932621;28;101896;-83
2021/10/09 09:48:42;;;;;;;9.68;8.77;;;;;;;24.69;22.98;101981.44;4917755;28;101443;-81
2021/10/09 09:51:12;;;;;;;10.80;9.60;;;;;;;24.27;23.50;101983.31;4917652;28;97081;-81
2021/10/09 09:53:43;;;;;;;10.43;9.32;;;;;;;23.99;24.73;101986.94;4951457;28;97091;-79
2021/10/09 09:56:10;;;;;;;9.27;8.05;;;;;;;23.98;23.28;101990.59;4914493;28;100763;-80
2021/10/09 09:58:38;;;;;;;10.00;8.07;;;;;;;22.97;24.72;101978.94;4933940;28;100983;-81
2021/10/09 10:01:05;;;;;;;10.05;8.50;;;;;;;22.87;24.94;101975.06;4965521;28;96940;-81
2021/10/09 10:03:31;;;;;;;9.40;7.85;;;;;;;22.83;25.04;101971.72;4947210;28;97150;-80
2021/10/09 10:05:58;;;;;;;9.82;8.65;;;;;;;22.52;25.18;101974.47;4933434;28;101225;-80
2021/10/09 10:08:25;;;;;;;10.38;8.13;;;;;;;21.80;25.13;101967.84;4918348;28;100204;-80
2021/10/09 10:10:51;;;;;;;11.15;7.55;;;;;;;21.70;25.80;101973.69;4931350;28;97197;-81
2021/10/09 10:13:17;;;;;;;8.50;7.60;;;;;;;21.24;26.21;101970.78;4935376;28;97288;-80
2021/10/09 10:15:43;;;;;;;10.30;7.68;;;;;;;21.29;25.83;101975.00;4967746;28;98089;-80
2021/10/09 10:18:09;;;;;;;9.00;6.75;;;;;;;21.20;25.96;101965.69;4920274;28;100949;-82
2021/10/09 10:20:55;;;;;;;12.38;7.35;;;;;;;20.53;26.57;101962.00;4933831;28;97599;-81
2021/10/09 10:23:36;;;;;;;8.98;6.65;;;;;;;20.26;26.79;101972.19;4932479;28;96933;-81
2021/10/09 10:26:34;;;;;;;11.57;7.63;;;;;;;19.74;27.72;101967.53;4923102;28;101277;-82
2021/10/09 10:29:21;;;;;;;10.52;7.80;;;;;;;19.34;28.02;101971.13;4902120;28;101412;-80
2021/10/09 10:32:07;;;;;;;8.52;6.97;;;;;;;18.85;28.92;101960.84;4946200;28;97991;-80
2021/10/09 10:34:33;;;;;;;10.48;7.50;;;;;;;18.79;29.46;101963.75;4925735;28;96909;-80
2021/10/09 10:36:58;;;;;;;8.98;8.07;;;;;;;18.80;29.15;101970.81;4941618;28;102078;-81
2021/10/09 10:39:38;;;;;;;8.85;7.75;;;;;;;18.38;29.49;101965.44;4916815;28;101913;-81
2021/10/09 10:42:07;;;;;;;10.13;8.50;;;;;;;18.07;29.70;101966.69;4942273;28;96838;-81
2021/10/09 10:45:01;;;;;;;14.35;8.48;;;;;;;17.85;30.17;101956.88;4946165;28;97010;-81
2021/10/09 10:53:37;;;;;;;8.27;7.43;;;;;;;16.91;31.83;101956.75;4976536;28;96731;-82
2021/10/09 10:56:03;;;;;;;8.73;7.38;;;;;;;16.78;32.42;101944.81;4930838;28;97006;-81
2021/10/09 10:58:29;;;;;;;12.45;7.47;;;;;;;16.66;32.45;101956.69;4957950;28;101744;-83
2021/10/09 11:01:14;;;;;;;10.15;7.68;;;;;;;16.25;32.91;101953.59;4937676;28;101456;-80
2021/10/09 11:03:45;;;;;;;9.95;7.28;;;;;;;15.90;32.74;101957.34;4951496;28;97402;-86
2021/10/09 11:06:11;;;;;;;9.60;7.03;;;;;;;15.82;33.66;101959.34;4921301;28;97136;-82
2021/10/09 11:08:41;;;;;;;11.20;7.50;;;;;;;15.71;33.52;101940.31;4924383;28;101391;-78
2021/10/09 11:11:06;;;;;;;12.80;7.65;;;;;;;15.71;33.63;101942.94;4916154;28;101454;-86
2021/10/09 11:13:32;;;;;;;10.57;7.28;;;;;;;15.52;33.85;101945.22;4921512;28;97285;-87
2021/10/09 11:15:59;;;;;;;11.43;7.53;;;;;;;15.39;33.58;101950.00;4925683;28;97238;-85
2021/10/09 11:18:24;;;;;;;9.27;8.13;;;;;;;15.23;33.87;101946.91;4945679;28;101473;-83
2021/10/09 11:21:03;;;;;;;9.45;7.43;;;;;;;15.06;34.50;101939.44;4929084;28;101829;-83
2021/10/09 11:23:28;;;;;;;8.18;7.35;;;;;;;15.20;34.31;101933.75;4919308;28;96890;-83
2021/10/09 11:25:54;;;;;;;11.10;7.93;;;;;;;15.24;34.47;101930.16;4939675;28;97250;-85
2021/10/09 11:28:22;;;;;;;12.10;8.10;;;;;;;15.32;34.38;101928.13;4959737;28;100265;-85
2021/10/09 11:30:47;;;;;;;14.35;8.60;;;;;;;15.21;34.79;101935.50;4916471;28;99393;-84
2021/10/09 11:33:13;;;;;;;10.43;7.82;;;;;;;15.11;34.36;101920.81;4948299;28;96968;-86
2021/10/09 11:35:40;;;;;;;9.07;7.80;;;;;;;14.94;34.82;101927.41;4939911;28;97028;-84
2021/10/09 11:38:23;;;;;;;15.05;8.15;;;;;;;14.75;35.11;101934.09;4952694;28;98022;-81
2021/10/09 11:45:52;;;;;;;10.98;8.10;;;;;;;14.70;35.67;101920.13;4949891;28;96971;-80
2021/10/09 11:54:23;;;;;;;9.85;7.55;;;;;;;14.71;35.02;101919.22;4937152;28;96944;-81
2021/10/09 11:56:49;;;;;;;10.10;7.38;;;;;;;14.73;34.56;101913.91;4949968;28;97132;-79
2021/10/09 11:59:15;;;;;;;10.88;7.38;;;;;;;14.73;34.21;101916.53;4943427;28;98663;-79
2021/10/09 12:01:46;;;;;;;10.80;7.75;;;;;;;14.74;33.75;101908.56;4947842;28;101365;-79
2021/10/09 12:04:16;;;;;;;;;;;;;;;14.66;34.18;101919.34;4945756;28;97945;-80
2021/10/09 12:06:55;;;;;;;11.55;7.50;;;;;;;14.72;34.85;101910.41;4945343;28;97413;-80
2021/10/09 12:09:42;;;;;;;15.32;7.93;;;;;;;14.75;34.56;101909.41;4964583;28;98438;-82
2021/10/09 12:12:21;;;;;;;10.43;8.70;;;;;;;14.55;34.69;101918.75;4962609;28;97830;-81
2021/10/09 12:14:49;;;;;;;14.80;8.27;;;;;;;14.52;35.04;101902.97;4946624;28;97461;-79
2021/10/09 12:17:15;;;;;;;11.23;7.70;;;;;;;14.45;34.82;101906.63;4946818;28;98379;-79
2021/10/09 12:19:41;;;;;;;10.95;7.55;;;;;;;14.53;34.94;101899.41;4935016;28;101532;-80
2021/10/09 12:22:11;;;;;;;13.07;7.50;;;;;;;14.56;35.67;101901.97;4944652;28;101398;-79
2021/10/09 12:24:52;;;;;;;13.68;7.53;;;;;;;14.53;34.99;101903.84;4950516;28;97409;-81
2021/10/09 12:27:19;;;;;;;13.50;7.80;;;;;;;14.58;34.73;101907.25;4930262;28;97421;-77
2021/10/09 12:30:16;;;;;;;10.85;7.43;;;;;;;14.53;35.58;101903.84;4942584;28;97675;-79
2021/10/09 12:32:47;;;;;;;11.98;7.65;;;;;;;14.49;34.65;101911.81;4963488;28;98107;-78
2021/10/09 12:35:17;;;;;;;14.38;7.20;;;;;;;14.44;34.82;101899.63;4960876;28;96837;-83
2021/10/09 12:37:59;;;;;;;12.43;7.63;;;;;;;14.41;34.97;101894.41;4942124;28;96828;-80
2021/10/09 12:40:38;;;;;;;12.52;7.88;;;;;;;14.41;34.92;101890.00;4952447;28;99786;-82
2021/10/09 12:43:07;;;;;;;10.27;7.85;;;;;;;14.54;34.69;101890.56;4930801;28;100468;-86
2021/10/09 12:45:33;;;;;;;12.18;6.63;;;;;;;14.48;33.72;101880.13;4925536;28;98181;-84
2021/10/09 12:47:59;;;;;;;15.27;7.93;;;;;;;14.55;34.05;101881.75;4915334;28;97227;-82
2021/10/09 12:50:30;;;;;;;12.38;9.20;;;;;;;14.49;33.66;101888.03;4925542;28;101939;-82
2021/10/09 12:52:56;;;;;;;8.82;7.00;;;;;;;14.45;33.69;101883.72;4943667;28;101177;-86
2021/10/09 12:55:27;;;;;;;13.40;8.38;;;;;;;14.56;33.23;101882.63;4924717;28;97366;-82
2021/10/09 12:57:55;;;;;;;13.17;7.37;;;;;;;14.52;33.62;101897.69;4938104;28;97347;-82
2021/10/09 13:00:22;;;;;;;12.15;6.85;;;;;;;14.31;33.80;101883.22;4946026;28;98119;-81
2021/10/09 13:02:51;;;;;;;13.23;7.65;;;;;;;14.41;33.71;101883.84;4927491;28;103052;-81
2021/10/09 13:05:17;;;;;;;9.82;7.18;;;;;;;14.41;33.99;101881.22;4932848;28;97636;-81
2021/10/09 13:07:42;;;;;;;9.80;7.05;;;;;;;14.34;34.32;101872.56;4925547;28;97543;-81
2021/10/09 13:10:11;;;;;;;6.70;6.00;;;;;;;14.35;34.35;101874.31;4957756;28;97506;-83
2021/10/09 13:12:36;;;;;;;9.45;6.72;;;;;;;14.32;33.97;101868.22;4916077;28;101722;-81
2021/10/09 13:15:02;;;;;;;11.63;6.78;;;;;;;14.37;33.31;101861.94;4934265;28;96856;-87
2021/10/09 13:17:28;;;;;;;16.80;6.78;;;;;;;14.39;34.07;101873.31;4918521;28;98077;-83
2021/10/09 13:19:54;;;;;;;12.32;7.25;;;;;;;14.24;34.58;101869.28;4929698;28;101199;-81
2021/10/09 13:22:19;;;;;;;9.75;7.32;;;;;;;14.34;34.13;101867.28;4910478;28;101590;-82
2021/10/09 13:24:45;;;;;;;9.57;6.95;;;;;;;14.27;33.89;101868.34;4932274;28;97581;-82
2021/10/09 13:27:10;;;;;;;9.90;6.95;;;;;;;14.20;34.40;101864.13;4942664;28;96762;-82
2021/10/09 13:29:36;;;;;;;9.40;7.65;;;;;;;14.29;34.27;101863.03;4921629;28;98075;-81
2021/10/09 13:32:01;;;;;;;13.43;6.82;;;;;;;14.25;34.74;101865.75;4943020;28;101237;-83
2021/10/09 13:34:27;;;;;;;10.07;7.63;;;;;;;14.26;34.84;101866.63;4917196;28;97721;-80
2021/10/09 13:36:53;;;;;;;13.25;7.50;;;;;;;14.29;34.96;101863.03;4940216;28;97052;-83
2021/10/09 13:39:18;;;;;;;11.95;7.38;;;;;;;14.15;34.61;101861.59;4938411;28;101722;-81
2021/10/09 13:41:44;;;;;;;12.45;6.72;;;;;;;14.08;35.04;101860.00;4939095;28;97419;-82
2021/10/09 13:44:09;;;;;;;14.63;7.53;;;;;;;14.09;35.01;101850.31;4947001;28;97275;-80
2021/10/09 13:46:37;;;;;;;15.50;8.20;;;;;;;14.07;35.39;101854.75;4945945;28;96813;-85
2021/10/09 13:49:04;;;;;;;11.52;7.07;;;;;;;14.11;34.87;101845.84;4937016;28;101571;-82
2021/10/09 13:51:30;;;;;;;12.68;7.70;;;;;;;14.10;35.02;101855.53;4929722;28;101513;-82
2021/10/09 13:53:56;;;;;;;15.13;7.97;;;;;;;14.06;35.22;101850.38;4925403;28;96930;-82
2021/10/09 13:56:22;;;;;;;12.35;7.05;;;;;;;14.06;35.23;101848.63;4930826;28;96779;-81
2021/10/09 13:58:47;;;;;;;13.70;7.03;;;;;;;14.03;35.27;101846.91;4937164;28;101448;-82
2021/10/09 14:01:14;;;;;;;12.15;7.68;;;;;;;14.16;35.27;101846.59;4941883;28;97936;-83
2021/10/09 14:03:40;;;;;;;13.63;7.03;;;;;;;14.26;35.09;101841.06;4954484;28;96922;-83
2021/10/09 14:06:06;;;;;;;11.23;7.28;;;;;;;14.17;35.39;101837.78;4941673;28;96955;-83
2021/10/09 14:08:31;;;;;;;11.45;7.72;;;;;;;14.11;35.72;101843.19;4938356;28;101200;-82
2021/10/09 14:10:58;;;;;;;14.77;7.40;;;;;;;14.11;35.74;101840.56;4952653;28;98042;-82
2021/10/09 14:13:24;;;;;;;10.43;7.47;;;;;;;14.02;35.90;101842.53;4931475;28;97260;-83
2021/10/09 14:15:50;;;;;;;12.88;7.25;;;;;;;13.96;35.81;101839.16;4939215;28;96926;-82
2021/10/09 14:18:16;;;;;;;10.30;6.72;;;;;;;14.02;35.51;101836.38;4937421;28;103331;-82
2021/10/09 14:20:49;;;;;;;16.58;7.13;;;;;;;14.06;35.64;101837.19;4942139;28;98163;-82
2021/10/09 14:23:15;;;;;;;11.85;6.32;;;;;;;14.05;35.78;101833.69;4939269;28;96913;-82
2021/10/09 14:25:42;;;;;;;11.95;7.85;;;;;;;13.97;35.41;101841.78;4940762;28;96815;-82
2021/10/09 14:28:09;;;;;;;15.73;7.57;;;;;;;13.89;35.82;101834.94;4915252;28;101018;-83
2021/10/09 14:30:36;;;;;;;12.65;7.40;;;;;;;13.88;35.64;101825.31;4933118;28;100866;-85
2021/10/09 14:33:02;;;;;;;10.18;7.55;;;;;;;13.87;36.31;101829.69;4929166;28;97322;-81
2021/10/09 14:35:27;;;;;;;14.57;6.45;;;;;;;13.93;36.33;101826.03;4924143;28;97313;-83
2021/10/09 14:37:53;;;;;;;13.65;6.30;;;;;;;13.91;36.81;101822.59;4950563;28;97684;-81
2021/10/09 14:40:18;;;;;;;9.07;7.07;;;;;;;13.92;36.27;101822.53;4933315;28;101072;-81
2021/10/09 14:42:45;;;;;;;8.50;6.50;;;;;;;13.91;36.50;101822.59;4939531;28;97454;-81
2021/10/09 14:45:12;;;;;;;14.32;6.72;;;;;;;13.91;36.70;101826.09;4933402;28;96854;-81
2021/10/09 14:47:50;;;;;;;12.70;6.75;;;;;;;13.89;37.22;101822.63;4929879;28;98133;-80
2021/10/09 14:53:07;;;;;;;10.70;6.72;;;;;;;13.81;37.50;101817.50;4946644;28;97844;-80
2021/10/09 15:19:47;;;;;;;12.00;8.02;;;;;;;13.57;37.75;101826.00;4925374;28;101377;-80
2021/10/09 15:22:13;;;;;;;16.77;7.72;;;;;;;13.53;37.97;101824.34;4904316;28;100856;-80
2021/10/09 15:24:38;;;;;;;10.82;7.78;;;;;;;13.52;38.16;101827.88;4913993;28;96792;-82
2021/10/09 15:27:04;;;;;;;10.02;7.25;;;;;;;13.52;38.59;101819.97;4897547;28;97333;-84
2021/10/09 15:29:29;;;;;;;11.07;7.15;;;;;;;13.50;38.38;101816.50;4914354;28;101302;-80
2021/10/09 15:31:55;;;;;;;9.85;6.50;;;;;;;13.44;38.67;101824.53;4898305;28;101447;-80
2021/10/09 15:34:20;;;;;;;9.88;7.28;;;;;;;13.41;38.86;101824.59;4923971;28;96750;-80
2021/10/09 15:36:46;;;;;;;13.18;6.70;;;;;;;13.44;38.93;101828.06;4907635;28;96842;-80
2021/10/09 15:39:12;;;;;;;15.32;7.65;;;;;;;13.41;39.26;101821.97;4906265;28;101287;-81
2021/10/09 15:41:38;;;;;;;10.50;7.40;;;;;;;13.35;39.52;101822.97;4911161;28;97891;-80
2021/10/09 15:44:04;;;;;;;16.77;8.30;;;;;;;13.28;39.53;101824.88;4912023;28;96801;-83
2021/10/09 15:46:29;;;;;;;15.05;8.07;;;;;;;13.21;39.58;101831.16;4915735;28;96922;-81
2021/10/09 15:48:55;;;;;;;10.73;7.40;;;;;;;13.13;39.74;101827.81;4895593;28;102166;-81
2021/10/09 15:51:20;;;;;;;10.90;7.30;;;;;;;13.11;39.52;101827.81;4892154;28;100826;-80
2021/10/09 15:53:46;;;;;;;15.63;7.90;;;;;;;13.02;39.71;101824.53;4890178;28;97307;-81
2021/10/09 15:56:15;;;;;;;12.35;8.30;;;;;;;13.00;39.82;101827.19;4918140;28;98816;-81
2021/10/09 15:58:41;;;;;;;14.15;8.30;;;;;;;12.99;39.73;101832.50;4914344;28;101375;-86
2021/10/09 16:01:07;;;;;;;11.07;7.40;;;;;;;12.88;39.68;101828.28;4906897;28;101373;-86
2021/10/09 16:03:33;;;;;;;15.65;10.60;;;;;;;12.89;39.69;101829.19;4895720;28;97550;-88
2021/10/09 16:05:59;;;;;;;8.57;7.10;;;;;;;12.87;39.76;101831.84;4913934;28;96861;-86
2021/10/09 16:08:25;;;;;;;8.70;6.70;;;;;;;12.81;39.73;101836.38;4899702;28;101853;-84
2021/10/09 16:10:50;;;;;;;16.30;7.60;;;;;;;12.81;39.93;101834.59;4913206;28;100505;-84
2021/10/09 16:13:21;;;;;;;14.48;7.30;;;;;;;12.67;40.22;101829.56;4921881;28;96842;-78
2021/10/09 16:15:47;;;;;;;9.60;6.82;;;;;;;12.60;39.95;101830.59;4918452;28;97557;-78
2021/10/09 16:18:12;;;;;;;11.45;7.00;;;;;;;12.55;40.25;101828.94;4916475;28;96963;-79
2021/10/09 16:20:38;;;;;;;10.18;6.70;;;;;;;12.53;40.46;101831.59;4915204;28;97969;-78
2021/10/09 16:23:03;;;;;;;8.45;6.60;;;;;;;12.48;40.10;101833.47;4915656;28;96973;-81
2021/10/09 16:25:29;;;;;;;8.43;7.05;;;;;;;12.49;40.53;101837.81;4917655;28;97054;-79
2021/10/09 16:27:54;;;;;;;9.15;6.97;;;;;;;12.56;40.34;101833.31;4903086;28;97269;-78
2021/10/09 16:30:20;;;;;;;8.45;6.22;;;;;;;12.44;40.40;101835.25;4900209;28;101445;-78
2021/10/09 16:32:46;;;;;;;16.58;6.65;;;;;;;12.42;41.12;101834.44;4907153;28;96863;-81
2021/10/09 16:35:11;;;;;;;11.77;7.15;;;;;;;12.35;41.07;101837.19;4905009;28;97403;-78
2021/10/09 16:37:38;;;;;;;9.43;7.22;;;;;;;12.27;40.95;101825.91;4905265;28;101534;-79
2021/10/09 16:40:04;;;;;;;30.80;17.20;;;;;;;12.28;40.78;101831.19;4939261;28;96874;-79
2021/10/09 16:42:29;;;;;;;23.50;14.90;;;;;;;12.20;41.33;101831.28;4913134;28;96909;-79
2021/10/09 16:44:55;;;;;;;30.20;15.32;;;;;;;12.16;41.55;101829.63;4931664;28;96857;-80
2021/10/09 16:47:20;;;;;;;14.13;8.82;;;;;;;12.15;41.39;101832.25;4946283;28;97588;-79
2021/10/09 16:49:46;;;;;;;11.57;7.82;;;;;;;12.15;41.56;101832.25;4929752;28;99345;-79
2021/10/09 16:52:11;;;;;;;12.02;9.30;;;;;;;12.04;42.04;101835.06;4910809;28;96824;-79
2021/10/09 16:54:37;;;;;;;10.88;9.05;;;;;;;12.04;41.75;101835.06;4903856;28;97417;-79
2021/10/09 16:57:02;;;;;;;14.95;9.40;;;;;;;12.06;42.02;101845.59;4926688;28;101341;-81
2021/10/09 16:59:28;;;;;;;13.13;9.35;;;;;;;12.02;42.05;101842.13;4909975;28;100908;-79
2021/10/09 17:01:53;;;;;;;11.18;9.82;;;;;;;12.00;41.99;101843.91;4923857;28;98388;-79
2021/10/09 17:04:21;;;;;;;12.38;7.93;;;;;;;11.95;42.01;101849.22;4926753;28;97120;-78
2021/10/09 17:06:48;;;;;;;11.18;8.68;;;;;;;11.91;42.61;101850.19;4945115;28;97922;-76
2021/10/09 17:09:14;;;;;;;14.23;8.95;;;;;;;11.78;43.05;101841.59;4946939;28;97664;-75
2021/10/09 17:11:39;;;;;;;18.67;9.90;;;;;;;11.77;43.38;101850.34;4953311;28;97031;-75
2021/10/09 17:14:05;;;;;;;18.60;9.77;;;;;;;11.77;43.20;101838.97;4957257;28;97231;-75
2021/10/09 17:16:30;;;;;;;15.32;8.98;;;;;;;11.69;43.45;101844.34;4945975;28;97999;-74
2021/10/09 17:19:04;;;;;;;13.57;8.57;;;;;;;11.69;43.13;101839.09;4948868;28;101473;-75
2021/10/09 17:21:35;;;;;;;12.15;8.32;;;;;;;11.71;43.13;101842.56;4922642;28;96912;-75
2021/10/09 17:24:01;;;;;;;12.68;8.63;;;;;;;11.65;43.17;101841.78;4961266;28;97304;-75
2021/10/09 17:26:26;;;;;;;12.98;7.85;;;;;;;11.64;43.37;101845.31;4942487;28;101096;-75
2021/10/09 17:28:53;;;;;;;14.20;8.38;;;;;;;11.56;44.03;101845.41;4940676;28;98502;-76
2021/10/09 17:31:18;;;;;;;12.65;8.35;;;;;;;11.54;44.14;101842.78;4940543;28;97916;-75
2021/10/09 17:33:44;;;;;;;14.48;9.70;;;;;;;11.49;43.98;101843.75;4936899;28;97026;-75
2021/10/09 17:36:09;;;;;;;14.98;9.40;;;;;;;11.44;44.24;101849.09;4961269;28;97953;-75
2021/10/09 17:38:35;;;;;;;19.20;9.90;;;;;;;11.46;43.95;101847.31;4946064;28;101365;-74
2021/10/09 17:41:01;;;;;;;18.75;10.52;;;;;;;11.43;44.11;101854.34;4957646;28;96866;-75
2021/10/09 17:43:26;;;;;;;13.95;10.85;;;;;;;11.37;44.97;101843.91;4956094;28;96848;-74
2021/10/09 17:45:53;;;;;;;17.95;10.85;;;;;;;11.36;44.46;101850.06;4959827;28;98062;-74
2021/10/09 17:48:22;;;;;;;25.77;11.60;;;;;;;11.33;44.71;101851.84;4931030;28;101405;-75
2021/10/09 17:50:49;;;;;;;21.98;12.23;;;;;;;11.29;44.92;101847.53;4955096;28;96929;-75
2021/10/09 17:53:16;;;;;;;20.05;12.00;;;;;;;11.23;45.45;101839.72;4923931;28;97292;-75
2021/10/09 17:55:43;;;;;;;25.88;13.70;;;;;;;11.27;45.24;101849.28;4932085;28;98087;-75
2021/10/09 17:58:09;;;;;;;21.83;13.15;;;;;;;11.27;45.51;101851.94;4942695;28;101942;-77
2021/10/09 18:00:41;;;;;;;28.45;14.38;;;;;;;11.21;45.41;101846.75;4941701;28;96706;-77
2021/10/09 18:03:08;;;;;;;24.42;14.60;;;;;;;11.23;45.41;101844.13;4925810;28;96939;-76
2021/10/09 18:09:21;;;;;;;21.63;13.75;;;;;;;11.18;45.47;101843.28;4950272;28;96935;-77
2021/10/09 18:15:42;;;;;;;21.27;12.23;;;;;;;11.04;45.98;101835.56;4970076;28;96695;-75
2021/10/09 18:18:08;;;;;;;19.02;12.48;;;;;;;11.05;45.94;101839.94;4943991;28;100402;-76
2021/10/09 18:20:33;;;;;;;20.55;12.95;;;;;;;11.05;46.14;101837.28;4942436;28;97940;-76
2021/10/09 18:23:03;;;;;;;19.95;12.50;;;;;;;10.99;46.10;101837.38;4942380;28;97328;-74
2021/10/09 18:25:29;;;;;;;18.25;12.32;;;;;;;10.98;46.53;101839.13;4963258;28;96941;-75
2021/10/09 18:27:54;;;;;;;19.67;11.32;;;;;;;10.92;47.06;101840.97;4951433;28;97392;-75
2021/10/09 18:30:20;;;;;;;19.55;11.93;;;;;;;10.97;46.30;101833.91;4945085;28;97030;-76
2021/10/09 18:32:45;;;;;;;21.83;13.15;;;;;;;10.84;47.07;101828.78;4943106;28;96755;-76
2021/10/09 18:35:11;;;;;;;18.33;12.25;;;;;;;10.84;47.07;101831.41;4969495;28;97025;-76
2021/10/09 18:37:38;;;;;;;19.45;11.93;;;;;;;10.80;47.39;101834.97;4961303;28;97372;-76
2021/10/09 18:40:04;;;;;;;20.52;12.48;;;;;;;10.85;46.95;101832.31;4950780;28;101304;-77
2021/10/09 18:42:30;;;;;;;19.48;13.00;;;;;;;10.81;47.01;101841.09;4943267;28;97229;-77
2021/10/09 18:44:57;;;;;;;21.10;12.30;;;;;;;10.77;46.92;101837.63;4943092;28;96895;-77
2021/10/09 18:47:23;;;;;;;22.52;13.13;;;;;;;10.77;47.27;101826.25;4937836;28;101527;-77
2021/10/09 18:49:48;;;;;;;18.73;12.88;;;;;;;10.80;47.01;101831.47;4920673;28;101806;-76
2021/10/09 18:52:14;;;;;;;20.17;12.50;;;;;;;10.73;47.31;101837.66;4924566;28;96892;-77
2021/10/09 18:54:40;;;;;;;25.65;12.90;;;;;;;10.73;47.36;101835.03;4944527;28;96844;-78
2021/10/09 18:57:06;;;;;;;22.15;12.70;;;;;;;10.73;47.68;101833.28;4946564;28;97552;-80
2021/10/09 18:59:32;;;;;;;18.92;12.73;;;;;;;10.58;48.00;101836.06;4932583;28;101051;-75
2021/10/09 19:01:58;;;;;;;25.60;14.45;;;;;;;10.63;47.56;101831.66;4951591;28;96899;-75
2021/10/09 19:04:24;;;;;;;21.17;13.50;;;;;;;10.58;47.82;101828.19;4930825;28;96847;-75
2021/10/09 19:06:49;;;;;;;26.40;14.45;;;;;;;10.56;47.60;101830.84;4931583;28;97495;-75
2021/10/09 19:09:19;;;;;;;23.65;14.20;;;;;;;10.53;48.02;101837.84;4949585;28;98689;-76
2021/10/09 19:11:51;;;;;;;23.92;15.10;;;;;;;10.47;48.65;101833.56;4951612;28;96757;-74
2021/10/09 19:14:26;;;;;;;22.00;13.93;;;;;;;10.43;48.71;101832.69;4926703;28;97222;-75
2021/10/09 19:16:53;;;;;;;25.38;14.75;;;;;;;10.37;48.98;101834.53;4934863;28;97853;-74
2021/10/09 19:19:18;;;;;;;22.27;14.13;;;;;;;10.23;48.91;101839.00;4933859;28;97377;-76
2021/10/09 19:21:44;;;;;;;26.88;15.23;;;;;;;10.24;49.27;101836.38;4952570;28;96985;-75
2021/10/09 19:24:09;;;;;;;21.27;14.15;;;;;;;10.23;49.22;101839.00;4969471;28;97036;-75
2021/10/09 19:26:35;;;;;;;23.80;15.15;;;;;;;10.23;49.66;101845.09;4933517;28;101701;-75
2021/10/09 19:29:01;;;;;;;26.15;15.88;;;;;;;10.26;49.65;101849.47;4936008;28;97278;-75
2021/10/09 19:31:26;;;;;;;27.63;15.38;;;;;;;10.18;49.24;101846.88;4949870;28;97716;-74
2021/10/09 19:34:01;;;;;;;27.00;16.55;;;;;;;10.11;49.88;101838.19;4975692;28;98298;-75
2021/10/09 19:36:28;;;;;;;32.55;17.75;;;;;;;10.10;49.73;101843.47;4930058;28;102407;-76
2021/10/09 19:38:53;;;;;;;29.58;18.75;;;;;;;10.12;49.75;101842.59;4933294;28;101069;-75
2021/10/09 19:41:19;;;;;;;31.92;16.88;;;;;;;10.09;50.00;101836.47;4936661;28;96890;-75
2021/10/09 19:43:44;;;;;;;35.33;17.67;;;;;;;10.04;50.14;101843.53;4942807;28;97436;-75
2021/10/09 19:46:13;;;;;;;32.67;17.35;;;;;;;9.96;50.52;101840.94;4936594;28;100523;-75
2021/10/09 19:48:38;;;;;;;32.38;17.30;;;;;;;9.91;50.52;101846.22;4952785;28;97651;-75
2021/10/09 19:51:09;;;;;;;32.33;18.63;;;;;;;9.90;50.75;101851.50;4945214;28;97326;-75
2021/10/09 19:53:35;;;;;;;30.63;18.98;;;;;;;9.89;50.73;101840.13;4932035;28;97249;-75
2021/10/09 19:56:13;;;;;;;31.00;17.85;;;;;;;9.91;51.02;101840.97;4939742;28;101925;-75
2021/10/09 19:58:39;;;;;;;28.77;18.33;;;;;;;9.85;51.15;101838.41;4920146;28;101698;-75
2021/10/09 20:01:05;;;;;;;26.63;16.95;;;;;;;9.86;51.27;101841.88;4947268;28;97466;-75
2021/10/09 20:03:34;;;;;;;30.75;16.98;;;;;;;9.83;50.76;101834.94;4956699;28;97068;-75